Time;durP1;ratioP1;P1;durP2;ratioP2;P2;SDS_P1;SDS_P2;PMS_P1;PMS_P2;Temp;Humidity;BMP_temperature;BMP_pressure;BME280_temperature;BME280_humidity;BME280_pressure;Samples;Min_cycle;Max_cycle;Signal;HPM_P1;HPM_P2
2021/12/11 00:01:25;;;;;;;2.13;0.15;;;22.60;92.30;;;;;;5127820;27;20015;-76
2021/12/11 00:04:01;;;;;;;1.52;0.10;;;22.60;92.40;;;;;;5126687;27;20047;-74
2021/12/11 00:06:32;;;;;;;1.85;0.15;;;22.60;93.00;;;;;;5123205;27;20367;-74
2021/12/11 00:09:11;;;;;;;1.73;0.22;;;22.70;92.10;;;;;;5127326;27;20497;-74
2021/12/11 00:11:44;;;;;;;0.45;0.35;;;22.80;92.60;;;;;;5129301;27;20038;-82
2021/12/11 00:14:13;;;;;;;0.25;0.10;;;23.00;92.20;;;;;;5126542;27;20032;-79
2021/12/11 00:16:41;;;;;;;0.30;0.13;;;22.90;91.90;;;;;;5133053;27;20493;-80
2021/12/11 00:19:15;;;;;;;0.38;0.00;;;22.80;92.00;;;;;;5127741;27;20039;-77
2021/12/11 00:21:43;;;;;;;0.40;0.10;;;22.90;92.50;;;;;;5120799;27;20020;-79
2021/12/11 00:24:25;;;;;;;1.77;0.47;;;23.10;92.50;;;;;;5128493;27;20397;-75
2021/12/11 00:26:58;;;;;;;2.35;0.10;;;23.20;91.40;;;;;;5124709;27;20039;-76
2021/12/11 00:29:28;;;;;;;1.65;0.30;;;23.20;91.90;;;;;;5117317;27;20019;-74
2021/12/11 00:32:17;;;;;;;0.43;0.00;;;23.40;91.70;;;;;;5110450;27;20038;-80
2021/12/11 00:34:46;;;;;;;2.28;0.30;;;23.60;91.90;;;;;;5126224;27;20031;-75
2021/12/11 00:37:18;;;;;;;0.20;0.08;;;23.90;92.00;;;;;;5129669;27;20927;-79
2021/12/11 00:39:52;;;;;;;0.13;0.00;;;24.20;90.60;;;;;;5124293;27;20047;-77
2021/12/11 00:42:23;;;;;;;1.42;0.15;;;24.20;90.60;;;;;;5130495;27;20529;-78
2021/12/11 00:44:54;;;;;;;0.47;0.15;;;24.40;90.90;;;;;;5133469;27;20027;-78
2021/12/11 00:47:26;;;;;;;2.15;0.20;;;24.60;90.40;;;;;;5131156;27;20031;-78
2021/12/11 00:49:57;;;;;;;1.00;0.30;;;24.50;89.80;;;;;;5130188;27;20030;-81
2021/12/11 00:52:47;;;;;;;1.98;0.32;;;24.50;90.60;;;;;;5127647;27;20023;-77
2021/12/11 00:55:31;;;;;;;1.70;0.50;;;24.30;89.80;;;;;;5117831;27;20136;-77
2021/12/11 00:58:12;;;;;;;1.20;0.17;;;23.90;90.00;;;;;;5125143;27;20542;-76
2021/12/11 01:01:04;;;;;;;1.45;0.20;;;23.50;91.00;;;;;;5119059;27;20019;-79
2021/12/11 01:03:42;;;;;;;0.35;0.08;;;23.10;90.70;;;;;;5124725;27;20023;-85
2021/12/11 01:06:16;;;;;;;0.90;0.60;;;23.00;91.60;;;;;;5128662;27;20035;-85
2021/12/11 01:08:55;;;;;;;1.58;0.30;;;22.90;92.20;;;;;;5135341;27;20457;-79
2021/12/11 01:11:25;;;;;;;0.20;0.17;;;22.90;92.50;;;;;;5132969;27;20023;-78
2021/12/11 01:14:10;;;;;;;3.53;0.63;;;23.00;91.20;;;;;;5132226;27;20398;-83
2021/12/11 01:16:40;;;;;;;0.95;0.20;;;23.20;91.60;;;;;;5129953;27;20073;-79
2021/12/11 01:19:16;;;;;;;4.00;1.10;;;23.40;91.60;;;;;;5124746;27;20027;-77
2021/12/11 01:21:56;;;;;;;0.55;0.10;;;23.50;91.80;;;;;;5128197;27;20019;-78
2021/12/11 01:24:46;;;;;;;2.15;0.30;;;23.70;91.50;;;;;;5104289;27;20377;-79
2021/12/11 01:27:20;;;;;;;0.30;0.10;;;24.00;90.70;;;;;;5127020;27;20062;-76
2021/12/11 01:29:49;;;;;;;0.32;0.05;;;24.60;90.60;;;;;;5122351;27;20207;-83
2021/12/11 01:32:17;;;;;;;0.60;0.35;;;24.90;90.30;;;;;;5126695;27;20035;-78
2021/12/11 01:34:46;;;;;;;1.77;0.10;;;25.00;89.40;;;;;;5121850;27;20084;-77
2021/12/11 01:37:16;;;;;;;0.40;0.20;;;24.70;88.20;;;;;;5118565;27;20034;-80
2021/12/11 01:39:44;;;;;;;3.40;0.28;;;24.30;89.20;;;;;;5124461;27;20027;-77
2021/12/11 01:42:22;;;;;;;1.38;0.10;;;24.00;89.70;;;;;;5110349;28;20027;-77
2021/12/11 01:44:53;;;;;;;2.35;0.50;;;23.60;90.30;;;;;;5129109;27;20091;-77
2021/12/11 01:47:26;;;;;;;0.20;0.10;;;23.40;91.10;;;;;;5123481;27;20039;-78
2021/12/11 01:50:00;;;;;;;2.60;0.10;;;23.30;90.60;;;;;;5121490;27;20027;-78
2021/12/11 01:52:38;;;;;;;0.60;0.10;;;23.10;91.20;;;;;;5128752;27;20476;-79
2021/12/11 01:55:33;;;;;;;2.33;0.20;;;23.00;91.30;;;;;;5130365;27;20023;-79
2021/12/11 01:58:01;;;;;;;0.55;0.10;;;23.10;91.30;;;;;;5116794;27;20032;-80
2021/12/11 02:00:35;;;;;;;0.30;0.30;;;23.00;91.20;;;;;;5113828;27;20054;-80
2021/12/11 02:03:07;;;;;;;1.95;0.10;;;23.10;91.20;;;;;;5114629;28;20035;-77
2021/12/11 02:05:43;;;;;;;1.45;0.20;;;23.30;91.00;;;;;;5121179;28;20451;-81
2021/12/11 02:08:15;;;;;;;0.65;0.20;;;23.40;91.90;;;;;;5129339;28;20545;-80
2021/12/11 02:10:56;;;;;;;0.95;0.17;;;23.60;92.30;;;;;;5126411;28;20066;-79
2021/12/11 02:13:45;;;;;;;0.43;0.10;;;23.80;92.40;;;;;;5127292;28;20102;-80
2021/12/11 02:16:24;;;;;;;1.23;0.10;;;24.20;91.20;;;;;;5111600;27;20443;-80
2021/12/11 02:18:58;;;;;;;0.85;0.32;;;24.30;90.70;;;;;;5126706;27;20011;-79
2021/12/11 02:21:50;;;;;;;0.47;0.10;;;24.30;90.90;;;;;;5133138;27;20035;-75
2021/12/11 02:24:23;;;;;;;1.13;0.30;;;24.20;90.50;;;;;;5132264;27;20111;-81
2021/12/11 02:26:51;;;;;;;0.40;0.20;;;24.10;90.70;;;;;;5131737;27;20060;-79
2021/12/11 02:29:41;;;;;;;2.20;0.35;;;23.90;90.50;;;;;;5137416;27;20098;-78
2021/12/11 02:32:26;;;;;;;3.70;0.52;;;23.70;90.80;;;;;;5135680;27;20027;-80
2021/12/11 02:35:19;;;;;;;0.90;0.20;;;23.60;91.50;;;;;;5133707;27;20023;-78
2021/12/11 02:38:07;;;;;;;1.83;0.20;;;23.60;91.00;;;;;;5119030;27;20030;-80
2021/12/11 02:41:12;;;;;;;1.55;0.15;;;23.50;90.80;;;;;;5133287;27;20069;-78
2021/12/11 02:43:44;;;;;;;0.15;0.05;;;23.60;90.80;;;;;;5123930;27;20431;-80
2021/12/11 02:46:24;;;;;;;0.52;0.20;;;23.70;90.60;;;;;;5134395;27;20404;-77
2021/12/11 02:49:07;;;;;;;0.20;0.10;;;23.80;90.70;;;;;;5133477;27;20031;-80
2021/12/11 02:51:52;;;;;;;0.60;0.20;;;23.80;90.70;;;;;;5127840;27;20027;-79
2021/12/11 02:54:44;;;;;;;0.80;0.28;;;23.60;90.40;;;;;;5131716;27;20486;-80
2021/12/11 02:57:19;;;;;;;0.82;0.10;;;23.50;90.70;;;;;;5130624;27;20128;-80
2021/12/11 02:59:48;;;;;;;2.35;0.10;;;23.60;91.10;;;;;;5117723;27;20055;-80
2021/12/11 03:02:20;;;;;;;0.35;0.10;;;23.50;91.10;;;;;;5133445;27;20035;-80
2021/12/11 03:04:54;;;;;;;0.00;0.00;;;23.40;90.50;;;;;;5135739;27;20031;-76
2021/12/11 03:07:38;;;;;;;0.80;0.10;;;23.40;90.70;;;;;;5130791;27;20505;-76
2021/12/11 03:10:14;;;;;;;0.30;0.00;;;23.30;90.60;;;;;;5122836;27;20042;-75
2021/12/11 03:12:44;;;;;;;2.40;0.30;;;23.20;91.30;;;;;;5123631;27;20365;-79
2021/12/11 03:15:15;;;;;;;0.30;0.10;;;23.20;90.60;;;;;;5132001;27;20027;-76
2021/12/11 03:17:43;;;;;;;1.27;0.10;;;23.10;90.90;;;;;;5133116;27;20034;-79
2021/12/11 03:20:15;;;;;;;0.32;0.03;;;23.10;90.50;;;;;;5130560;27;20020;-79
2021/12/11 03:22:43;;;;;;;1.20;0.57;;;23.10;91.20;;;;;;5125765;27;20023;-79
2021/12/11 03:25:16;;;;;;;1.63;0.10;;;23.30;90.70;;;;;;5128065;27;20038;-78
2021/12/11 03:27:44;;;;;;;0.10;0.00;;;23.50;90.40;;;;;;5127496;27;20105;-81
2021/12/11 03:30:15;;;;;;;1.65;0.20;;;23.80;90.40;;;;;;5132092;27;20110;-81
2021/12/11 03:32:43;;;;;;;3.00;0.50;;;24.00;90.00;;;;;;5132219;27;20058;-83
2021/12/11 03:35:11;;;;;;;1.88;0.10;;;24.00;90.00;;;;;;5129518;27;20023;-80
2021/12/11 03:37:38;;;;;;;0.43;0.10;;;24.20;89.90;;;;;;5131822;27;20039;-82
2021/12/11 03:40:07;;;;;;;0.10;0.10;;;24.20;88.50;;;;;;5128691;27;20108;-82
2021/12/11 03:42:39;;;;;;;0.08;0.03;;;23.90;88.90;;;;;;5130311;27;20470;-82
2021/12/11 03:45:13;;;;;;;0.70;0.17;;;23.60;90.10;;;;;;5117248;27;20055;-84
2021/12/11 03:47:46;;;;;;;1.13;0.10;;;23.60;89.60;;;;;;5133302;27;20030;-80
2021/12/11 03:50:16;;;;;;;1.20;0.20;;;23.60;90.40;;;;;;5120610;27;20015;-81
2021/12/11 03:52:45;;;;;;;0.57;0.10;;;23.60;91.00;;;;;;5127108;27;20027;-81
2021/12/11 03:55:16;;;;;;;1.83;0.10;;;23.70;89.90;;;;;;5130901;27;20025;-81
2021/12/11 03:57:44;;;;;;;1.10;0.20;;;23.80;90.40;;;;;;5118142;27;20019;-84
2021/12/11 04:00:19;;;;;;;0.60;0.10;;;23.90;90.60;;;;;;5126573;27;20039;-83
2021/12/11 04:02:48;;;;;;;0.15;0.10;;;23.90;90.50;;;;;;5128585;27;20126;-82
2021/12/11 04:05:16;;;;;;;1.02;0.10;;;23.80;90.20;;;;;;5131740;27;20048;-81
2021/12/11 04:07:47;;;;;;;0.45;0.15;;;23.40;90.80;;;;;;5132899;27;20031;-82
2021/12/11 04:10:17;;;;;;;1.02;0.20;;;23.10;90.80;;;;;;5134929;27;20016;-78
2021/12/11 04:12:48;;;;;;;1.77;0.00;;;23.10;91.10;;;;;;5131194;27;20023;-81
2021/12/11 04:15:16;;;;;;;0.38;0.13;;;23.00;91.10;;;;;;5134535;27;20105;-84
2021/12/11 04:17:44;;;;;;;0.45;0.00;;;22.90;91.00;;;;;;5133778;27;20027;-80
2021/12/11 04:20:16;;;;;;;0.75;0.00;;;22.90;91.00;;;;;;5133642;27;20031;-83
2021/12/11 04:22:43;;;;;;;0.55;0.10;;;22.90;91.00;;;;;;5133314;27;20062;-80
2021/12/11 04:25:13;;;;;;;0.00;0.00;;;22.90;90.90;;;;;;5133612;27;20065;-79
2021/12/11 04:27:41;;;;;;;0.40;0.00;;;22.80;90.90;;;;;;5132584;27;22019;-84
2021/12/11 04:30:12;;;;;;;1.08;0.35;;;22.80;91.20;;;;;;5133335;27;20095;-81
2021/12/11 04:32:40;;;;;;;0.32;0.30;;;22.90;91.20;;;;;;5130788;27;20019;-79
2021/12/11 04:35:10;;;;;;;1.08;0.20;;;22.90;91.00;;;;;;5125506;27;20023;-77
2021/12/11 04:37:38;;;;;;;0.50;0.22;;;22.80;91.90;;;;;;5120141;27;20024;-81
2021/12/11 04:40:14;;;;;;;0.65;0.00;;;22.80;91.60;;;;;;5126266;27;20032;-81
2021/12/11 04:43:06;;;;;;;0.20;0.10;;;22.80;91.40;;;;;;5115599;27;20023;-82
2021/12/11 04:46:01;;;;;;;2.08;0.10;;;22.90;91.50;;;;;;5136611;27;20045;-79
2021/12/11 04:54:04;;;;;;;0.73;0.13;;;22.90;91.40;;;;;;5133039;27;20106;-81
2021/12/11 04:59:52;;;;;;;0.40;0.10;;;22.50;91.90;;;;;;5133601;27;20382;-83
2021/12/11 05:05:23;;;;;;;1.08;0.10;;;22.60;92.10;;;;;;5120367;27;20091;-81
2021/12/11 05:10:53;;;;;;;0.45;0.13;;;23.00;92.30;;;;;;5131786;27;20054;-78
2021/12/11 05:13:22;;;;;;;0.30;0.10;;;23.20;92.00;;;;;;5120425;27;20088;-77
2021/12/11 05:15:51;;;;;;;1.02;0.13;;;23.40;91.70;;;;;;5131452;27;20555;-78
2021/12/11 05:18:24;;;;;;;0.25;0.00;;;23.40;92.40;;;;;;5132722;27;20495;-79
2021/12/11 05:20:56;;;;;;;1.55;0.25;;;23.30;91.80;;;;;;5132100;27;20027;-79
2021/12/11 05:23:24;;;;;;;0.00;0.00;;;23.20;91.70;;;;;;5132442;27;20048;-80
2021/12/11 05:25:52;;;;;;;2.28;0.10;;;23.10;91.30;;;;;;5131636;27;20047;-81
2021/12/11 05:28:19;;;;;;;0.35;0.10;;;23.00;91.90;;;;;;5131879;27;20019;-81
2021/12/11 05:30:50;;;;;;;1.35;0.20;;;22.70;91.70;;;;;;5130325;27;20038;-81
2021/12/11 05:33:19;;;;;;;0.70;0.40;;;22.50;92.10;;;;;;5126916;27;20480;-80
2021/12/11 05:35:48;;;;;;;1.65;0.68;;;22.50;92.80;;;;;;5127422;27;20027;-81
2021/12/11 05:38:18;;;;;;;0.47;0.20;;;22.40;92.70;;;;;;5130351;27;20121;-81
2021/12/11 05:40:52;;;;;;;1.15;0.30;;;22.40;92.20;;;;;;5128549;27;20087;-81
2021/12/11 05:43:20;;;;;;;4.15;0.10;;;22.30;92.50;;;;;;5131039;27;20019;-81
2021/12/11 05:45:48;;;;;;;1.33;0.13;;;22.20;92.20;;;;;;5128846;27;20447;-80
2021/12/11 05:48:15;;;;;;;0.20;0.10;;;22.10;92.50;;;;;;5131294;27;20030;-81
2021/12/11 05:50:50;;;;;;;1.55;0.10;;;22.00;92.20;;;;;;5129894;27;20489;-81
2021/12/11 05:53:20;;;;;;;1.38;0.43;;;22.00;92.40;;;;;;5120893;27;20439;-80
2021/12/11 05:55:48;;;;;;;0.73;0.20;;;22.00;92.90;;;;;;5115151;27;20025;-81
2021/12/11 05:58:25;;;;;;;2.22;0.20;;;22.00;92.90;;;;;;5133545;27;20106;-81
2021/12/11 06:00:53;;;;;;;1.75;0.10;;;22.00;93.10;;;;;;5115333;27;20031;-81
2021/12/11 06:03:21;;;;;;;0.68;0.15;;;22.10;93.00;;;;;;5133594;27;20098;-80
2021/12/11 06:05:48;;;;;;;1.92;0.17;;;22.10;93.00;;;;;;5130762;28;20152;-79
2021/12/11 06:08:16;;;;;;;3.10;0.47;;;22.10;93.30;;;;;;5133036;28;20041;-80
2021/12/11 06:10:45;;;;;;;0.70;0.10;;;22.10;92.70;;;;;;5131812;28;20785;-81
2021/12/11 06:13:12;;;;;;;1.65;0.10;;;22.00;92.90;;;;;;5130680;28;20019;-79
2021/12/11 06:15:40;;;;;;;1.48;0.60;;;22.00;92.90;;;;;;5122555;28;20031;-80
2021/12/11 06:18:13;;;;;;;0.93;0.20;;;22.00;92.90;;;;;;5127552;28;20026;-80
2021/12/11 06:20:41;;;;;;;1.20;0.30;;;22.00;93.20;;;;;;5127119;28;20062;-80
2021/12/11 06:23:08;;;;;;;2.38;0.30;;;22.00;93.40;;;;;;5133140;28;20027;-80
2021/12/11 06:25:36;;;;;;;0.50;0.20;;;22.10;93.30;;;;;;5130678;28;20031;-80
2021/12/11 06:28:08;;;;;;;1.45;0.20;;;22.00;93.20;;;;;;5133093;28;20015;-80
2021/12/11 06:30:36;;;;;;;0.30;0.10;;;22.00;93.60;;;;;;5131166;28;20037;-82
2021/12/11 06:33:04;;;;;;;1.40;0.40;;;22.00;93.20;;;;;;5132836;28;20011;-80
2021/12/11 06:35:40;;;;;;;1.10;0.10;;;22.00;93.60;;;;;;5127148;28;20103;-80
2021/12/11 06:38:10;;;;;;;0.43;0.10;;;21.90;93.60;;;;;;5132714;28;20047;-81
2021/12/11 06:40:39;;;;;;;1.35;0.10;;;21.90;93.30;;;;;;5129705;28;20030;-80
2021/12/11 06:43:06;;;;;;;1.00;0.10;;;21.90;93.70;;;;;;5129616;28;20015;-80
2021/12/11 06:45:34;;;;;;;0.60;0.20;;;21.90;93.70;;;;;;5129392;28;20091;-81
2021/12/11 06:48:01;;;;;;;0.88;0.40;;;21.90;93.90;;;;;;5130754;28;20118;-80
2021/12/11 06:50:29;;;;;;;0.65;0.30;;;21.80;94.70;;;;;;5127674;28;20022;-81
2021/12/11 06:53:02;;;;;;;3.65;0.77;;;21.70;95.30;;;;;;5126963;28;20027;-81
2021/12/11 06:55:29;;;;;;;1.85;0.50;;;21.60;96.00;;;;;;5098482;28;20027;-80
2021/12/11 06:57:57;;;;;;;2.40;0.30;;;21.60;96.00;;;;;;5131890;28;20125;-81
2021/12/11 07:00:26;;;;;;;1.63;0.45;;;21.60;95.80;;;;;;5122591;27;20023;-80
2021/12/11 07:02:53;;;;;;;3.30;0.32;;;21.50;95.90;;;;;;5133297;27;20027;-78
2021/12/11 07:05:21;;;;;;;2.05;0.20;;;21.50;96.00;;;;;;5134040;27;20039;-80
2021/12/11 07:07:49;;;;;;;1.52;0.50;;;21.50;96.50;;;;;;5122880;27;20020;-80
2021/12/11 07:10:22;;;;;;;6.32;1.85;;;21.50;96.20;;;;;;5123984;27;20027;-79
2021/12/11 07:12:51;;;;;;;1.48;0.28;;;21.50;96.50;;;;;;5135426;27;20086;-78
2021/12/11 07:15:18;;;;;;;2.92;0.32;;;21.50;96.50;;;;;;5136011;27;20052;-84
2021/12/11 07:17:46;;;;;;;1.08;0.22;;;21.40;96.30;;;;;;5135433;27;20023;-80
2021/12/11 07:20:15;;;;;;;2.47;0.50;;;21.40;96.60;;;;;;5134587;27;20027;-80
2021/12/11 07:22:43;;;;;;;1.90;0.40;;;21.30;96.60;;;;;;5134783;27;20489;-79
2021/12/11 07:25:18;;;;;;;1.65;0.30;;;21.20;96.40;;;;;;5132223;27;20493;-79
2021/12/11 07:27:46;;;;;;;2.07;0.40;;;21.20;96.60;;;;;;5130422;27;20035;-81
2021/12/11 07:30:15;;;;;;;1.40;0.22;;;21.30;96.20;;;;;;5136409;27;20027;-80
2021/12/11 07:32:42;;;;;;;3.45;0.52;;;21.30;95.80;;;;;;5133859;27;20381;-80
2021/12/11 07:35:10;;;;;;;1.80;0.70;;;21.40;96.10;;;;;;5137789;27;20513;-78
2021/12/11 07:37:38;;;;;;;4.20;0.52;;;21.40;96.00;;;;;;5136177;27;20027;-82
2021/12/11 07:40:10;;;;;;;3.83;0.70;;;21.40;96.20;;;;;;5136117;27;20039;-79
2021/12/11 07:42:37;;;;;;;2.58;0.95;;;21.30;96.60;;;;;;5134788;27;20023;-80
2021/12/11 07:45:05;;;;;;;8.15;0.57;;;21.20;96.70;;;;;;5115671;27;20506;-80
2021/12/11 07:47:33;;;;;;;2.50;0.60;;;21.10;97.00;;;;;;5132511;27;20110;-80
2021/12/11 07:50:01;;;;;;;4.35;0.85;;;21.10;97.30;;;;;;5138046;27;20019;-80
2021/12/11 07:52:28;;;;;;;3.35;0.85;;;21.10;97.50;;;;;;5124614;27;20038;-79
2021/12/11 07:54:56;;;;;;;3.53;1.00;;;21.20;97.70;;;;;;5126711;27;20363;-82
2021/12/11 07:57:23;;;;;;;1.65;0.30;;;21.20;97.00;;;;;;5128577;27;20106;-81
2021/12/11 07:59:50;;;;;;;0.55;0.10;;;21.20;95.10;;;;;;5115076;27;20039;-83
2021/12/11 08:02:18;;;;;;;1.23;0.32;;;21.10;94.80;;;;;;5134244;27;20505;-82
2021/12/11 08:04:45;;;;;;;0.55;0.20;;;21.10;94.50;;;;;;5134047;27;20027;-82
2021/12/11 08:07:13;;;;;;;1.20;0.65;;;20.90;94.50;;;;;;5135113;27;20035;-83
2021/12/11 08:09:40;;;;;;;7.22;0.60;;;20.80;96.00;;;;;;5118631;27;20486;-81
2021/12/11 08:12:08;;;;;;;3.80;0.73;;;20.70;97.60;;;;;;5133728;27;20090;-82
2021/12/11 08:14:36;;;;;;;2.15;0.30;;;20.50;97.40;;;;;;5132640;27;20453;-82
2021/12/11 08:17:06;;;;;;;3.95;0.50;;;20.30;98.40;;;;;;5132238;27;20042;-81
2021/12/11 08:19:34;;;;;;;5.93;0.57;;;20.20;98.80;;;;;;5116782;27;20047;-82
2021/12/11 08:22:05;;;;;;;4.18;1.58;;;20.00;99.40;;;;;;5127046;27;20038;-83
2021/12/11 08:24:34;;;;;;;7.35;1.05;;;19.90;99.70;;;;;;5122457;27;20078;-75
2021/12/11 08:27:10;;;;;;;4.78;2.00;;;20.00;99.80;;;;;;5132009;27;20069;-74
2021/12/11 08:29:38;;;;;;;6.97;0.65;;;20.00;99.60;;;;;;5132959;27;20087;-73
2021/12/11 08:32:06;;;;;;;2.08;0.80;;;20.00;99.80;;;;;;5130878;27;20126;-76
2021/12/11 08:34:34;;;;;;;5.45;1.98;;;20.00;99.70;;;;;;5110275;27;20027;-75
2021/12/11 08:37:04;;;;;;;6.72;1.35;;;19.90;99.80;;;;;;5125156;27;20489;-78
2021/12/11 08:39:31;;;;;;;2.67;1.08;;;19.80;99.40;;;;;;5130314;27;20043;-78
2021/12/11 08:42:02;;;;;;;2.33;0.60;;;19.80;99.30;;;;;;5129775;27;20554;-78
2021/12/11 08:44:35;;;;;;;2.90;0.95;;;19.70;99.10;;;;;;5129537;27;20139;-75
2021/12/11 08:47:09;;;;;;;3.65;0.90;;;19.70;99.00;;;;;;5130409;27;20062;-75
2021/12/11 08:49:39;;;;;;;4.47;0.68;;;19.60;99.20;;;;;;5130640;27;20106;-77
2021/12/11 08:52:25;;;;;;;3.10;0.55;;;19.60;99.20;;;;;;5129987;27;20019;-75
2021/12/11 08:54:54;;;;;;;3.25;1.25;;;19.50;99.20;;;;;;5112465;28;20070;-76
2021/12/11 08:57:29;;;;;;;2.30;0.47;;;19.40;99.20;;;;;;5131455;27;20481;-76
2021/12/11 09:00:08;;;;;;;2.72;0.40;;;19.40;99.30;;;;;;5117691;27;20027;-75
2021/12/11 09:02:45;;;;;;;1.45;0.50;;;19.40;99.10;;;;;;5129923;27;20115;-75
2021/12/11 09:05:21;;;;;;;0.32;0.30;;;19.30;99.30;;;;;;5131270;27;20042;-75
2021/12/11 09:08:08;;;;;;;0.75;0.45;;;19.20;99.30;;;;;;5131893;27;20064;-77
2021/12/11 09:11:03;;;;;;;0.80;0.30;;;19.00;99.10;;;;;;5117210;27;20050;-76
2021/12/11 09:13:54;;;;;;;0.47;0.20;;;18.90;98.90;;;;;;5126447;27;20103;-75
2021/12/11 09:16:36;;;;;;;0.20;0.17;;;18.80;99.20;;;;;;5116682;27;20034;-76
2021/12/11 09:19:16;;;;;;;1.58;0.40;;;18.80;99.20;;;;;;5105165;27;20041;-77
2021/12/11 09:21:58;;;;;;;3.65;0.40;;;18.70;99.50;;;;;;5125158;27;20464;-78
2021/12/11 09:24:41;;;;;;;1.70;0.40;;;18.60;99.50;;;;;;5103242;27;20034;-78
2021/12/11 09:27:13;;;;;;;2.25;0.55;;;18.60;99.80;;;;;;5119658;27;20087;-78
2021/12/11 09:29:52;;;;;;;2.10;0.63;;;18.60;99.90;;;;;;5119187;27;20019;-79
2021/12/11 09:32:38;;;;;;;1.50;0.60;;;18.60;99.90;;;;;;5124535;27;20106;-77
2021/12/11 09:35:34;;;;;;;1.52;0.50;;;18.60;99.90;;;;;;5111563;28;20096;-78
2021/12/11 09:38:07;;;;;;;5.57;1.00;;;18.70;99.90;;;;;;5129881;27;20070;-79
2021/12/11 09:40:40;;;;;;;1.85;0.68;;;18.50;99.90;;;;;;5130204;27;20026;-80
2021/12/11 09:43:08;;;;;;;1.92;0.45;;;18.30;99.90;;;;;;5126668;27;20382;-81
2021/12/11 09:45:42;;;;;;;0.95;0.30;;;18.20;99.90;;;;;;5130414;27;20039;-76
2021/12/11 09:48:17;;;;;;;1.00;0.52;;;18.10;99.90;;;;;;5128467;27;20015;-78
2021/12/11 09:50:55;;;;;;;4.45;1.30;;;18.00;99.90;;;;;;5125508;27;20030;-79
2021/12/11 09:53:26;;;;;;;4.53;0.63;;;17.90;99.90;;;;;;5120922;27;20058;-79
2021/12/11 09:55:55;;;;;;;3.35;0.70;;;17.90;99.90;;;;;;5130768;27;20382;-75
2021/12/11 09:58:27;;;;;;;0.85;0.47;;;17.80;99.90;;;;;;5131953;27;20043;-78
2021/12/11 10:01:06;;;;;;;3.15;0.35;;;17.80;99.90;;;;;;5123222;27;20416;-78
2021/12/11 10:03:50;;;;;;;4.45;0.40;;;17.80;99.90;;;;;;5131992;27;20019;-78
2021/12/11 10:07:25;;;;;;;1.50;0.63;;;17.80;99.90;;;;;;5129961;27;20043;-79
2021/12/11 10:09:24;;;;;;;2.00;0.80;;;17.70;99.90;;;;;;5105913;28;20276;-77
2021/12/11 10:11:58;;;;;;;1.45;0.75;;;17.60;99.90;;;;;;5125997;28;20031;-80
2021/12/11 10:14:55;;;;;;;2.08;0.43;;;17.60;99.90;;;;;;5123280;28;20043;-78
2021/12/11 10:17:29;;;;;;;;;;;17.50;99.90;;;;;;5124415;28;20400;-78
2021/12/11 10:20:00;;;;;;;1.35;0.40;;;17.50;99.90;;;;;;5123661;28;19907;-78
2021/12/11 10:22:35;;;;;;;4.95;0.80;;;17.50;99.90;;;;;;5114399;28;20531;-78
2021/12/11 10:25:08;;;;;;;1.33;1.02;;;17.40;99.90;;;;;;5117289;28;20044;-79
2021/12/11 10:27:35;;;;;;;2.05;0.50;;;17.40;99.90;;;;;;5119990;28;20034;-78
2021/12/11 10:30:07;;;;;;;4.95;0.70;;;17.40;99.90;;;;;;5100853;28;20686;-79
2021/12/11 10:32:35;;;;;;;3.38;0.35;;;17.40;99.90;;;;;;5118753;28;20130;-79
2021/12/11 10:35:13;;;;;;;2.05;0.40;;;17.50;99.90;;;;;;5127997;27;20031;-79
2021/12/11 10:37:41;;;;;;;3.15;0.55;;;17.60;99.90;;;;;;5130574;27;20465;-78
2021/12/11 10:40:24;;;;;;;1.35;0.85;;;17.60;99.90;;;;;;5130074;27;20038;-82
2021/12/11 10:42:57;;;;;;;3.95;1.13;;;17.60;99.90;;;;;;5127272;27;20027;-82
2021/12/11 10:45:26;;;;;;;3.25;1.80;;;17.60;99.90;;;;;;5128089;27;20037;-80
2021/12/11 10:47:59;;;;;;;2.17;0.85;;;17.60;99.90;;;;;;5108207;27;20048;-79
2021/12/11 10:50:35;;;;;;;1.73;1.25;;;17.50;99.90;;;;;;5133145;27;20038;-80
2021/12/11 10:53:06;;;;;;;5.57;1.20;;;17.50;99.90;;;;;;5122133;27;20068;-80
2021/12/11 10:55:36;;;;;;;5.57;1.63;;;17.40;99.90;;;;;;5116097;27;20478;-80
2021/12/11 10:58:16;;;;;;;3.35;2.00;;;17.30;99.90;;;;;;5125256;27;20031;-81
2021/12/11 11:00:56;;;;;;;5.03;1.85;;;17.30;99.90;;;;;;5132876;27;22042;-82
2021/12/11 11:03:27;;;;;;;8.65;3.97;;;17.20;99.90;;;;;;5129544;27;20016;-83
2021/12/11 11:05:55;;;;;;;4.63;1.48;;;17.20;99.90;;;;;;5126652;27;20084;-81
2021/12/11 11:08:23;;;;;;;1.30;0.80;;;17.20;99.90;;;;;;5128407;27;20097;-81
2021/12/11 11:10:55;;;;;;;2.47;0.30;;;17.10;99.90;;;;;;5131132;27;20444;-81
2021/12/11 11:13:24;;;;;;;1.02;0.60;;;17.10;99.90;;;;;;5123513;27;20077;-82
2021/12/11 11:15:53;;;;;;;3.45;0.40;;;17.20;99.90;;;;;;5128791;27;20023;-81
2021/12/11 11:18:24;;;;;;;1.95;0.43;;;17.20;99.90;;;;;;5120252;27;20457;-81
2021/12/11 11:20:58;;;;;;;1.45;0.55;;;17.20;99.90;;;;;;5129734;27;20034;-79
2021/12/11 11:23:26;;;;;;;3.08;0.50;;;17.30;99.90;;;;;;5127705;27;20431;-80
2021/12/11 11:25:57;;;;;;;3.03;0.65;;;17.20;99.90;;;;;;5120350;27;20023;-79
2021/12/11 11:28:27;;;;;;;3.08;0.82;;;17.20;99.90;;;;;;5106042;27;20023;-80
2021/12/11 11:31:00;;;;;;;1.38;0.88;;;17.20;99.90;;;;;;5121506;27;20032;-77
2021/12/11 11:33:29;;;;;;;1.90;0.50;;;17.20;99.90;;;;;;5123781;27;20023;-80
2021/12/11 11:35:59;;;;;;;3.10;0.50;;;17.10;99.90;;;;;;5120315;27;20054;-79
2021/12/11 11:38:32;;;;;;;1.02;0.30;;;17.10;99.90;;;;;;5122847;27;20381;-79
2021/12/11 11:41:11;;;;;;;1.23;0.47;;;17.10;99.90;;;;;;5129159;27;20088;-79
2021/12/11 11:43:39;;;;;;;0.65;0.30;;;17.00;99.90;;;;;;5122060;27;20030;-78
2021/12/11 11:46:08;;;;;;;3.30;0.70;;;16.90;99.90;;;;;;5127089;27;20035;-79
2021/12/11 11:48:40;;;;;;;1.45;0.20;;;16.80;99.90;;;;;;5123607;27;20042;-79
2021/12/11 11:51:12;;;;;;;1.23;0.57;;;16.80;99.90;;;;;;5119003;27;20032;-79
2021/12/11 11:53:40;;;;;;;3.95;0.40;;;16.70;99.90;;;;;;5131263;27;20493;-78
2021/12/11 11:56:11;;;;;;;2.92;0.20;;;16.70;99.90;;;;;;5126098;27;20023;-79
2021/12/11 11:58:39;;;;;;;2.22;0.20;;;16.60;99.90;;;;;;5129909;27;20484;-78
2021/12/11 12:01:11;;;;;;;2.55;0.40;;;16.60;99.90;;;;;;5129213;27;20027;-79
2021/12/11 12:03:39;;;;;;;1.25;0.30;;;16.60;99.90;;;;;;5133253;27;20079;-78
2021/12/11 12:06:13;;;;;;;1.48;0.80;;;16.50;99.90;;;;;;5124386;27;20129;-78
2021/12/11 12:08:43;;;;;;;1.35;0.30;;;16.50;99.90;;;;;;5134740;27;20054;-79
2021/12/11 12:11:11;;;;;;;4.53;0.45;;;16.40;99.90;;;;;;5128018;27;20462;-81
2021/12/11 12:13:39;;;;;;;0.40;0.20;;;16.30;99.90;;;;;;5126187;27;20027;-82
2021/12/11 12:16:10;;;;;;;2.15;0.38;;;16.20;99.90;;;;;;5125669;27;20371;-80
2021/12/11 12:18:41;;;;;;;1.05;0.30;;;16.20;99.90;;;;;;5132058;27;20064;-82
2021/12/11 12:21:15;;;;;;;2.22;0.30;;;16.10;99.90;;;;;;5125533;27;20019;-81
2021/12/11 12:23:43;;;;;;;2.92;0.80;;;16.00;99.90;;;;;;5125306;27;20014;-79
2021/12/11 12:26:19;;;;;;;5.85;1.50;;;16.00;99.90;;;;;;5128810;27;20031;-79
2021/12/11 12:28:48;;;;;;;3.13;0.82;;;15.90;99.90;;;;;;5119321;27;20031;-79
2021/12/11 12:31:22;;;;;;;1.50;0.68;;;15.90;99.90;;;;;;5122546;27;20287;-78
2021/12/11 12:33:50;;;;;;;2.13;1.08;;;15.80;99.90;;;;;;5119610;27;20378;-80
2021/12/11 12:36:19;;;;;;;2.47;0.50;;;15.70;99.90;;;;;;5121413;27;20024;-80
2021/12/11 12:38:49;;;;;;;2.13;0.75;;;15.70;99.90;;;;;;5126576;27;20084;-79
2021/12/11 12:41:45;;;;;;;1.98;0.63;;;15.70;99.90;;;;;;5117757;27;20129;-79
2021/12/11 12:44:19;;;;;;;1.80;0.77;;;15.60;99.90;;;;;;5127369;27;20556;-79
2021/12/11 12:46:59;;;;;;;2.50;0.75;;;15.60;99.90;;;;;;5132877;27;20108;-78
2021/12/11 12:49:30;;;;;;;2.40;0.70;;;15.60;99.90;;;;;;5121867;27;20016;-79
2021/12/11 12:52:03;;;;;;;2.00;1.05;;;15.60;99.90;;;;;;5123698;27;20031;-80
2021/12/11 12:54:31;;;;;;;2.50;0.70;;;15.50;99.90;;;;;;5132391;27;20023;-86
2021/12/11 12:57:13;;;;;;;2.15;1.13;;;15.50;99.90;;;;;;5133146;27;20023;-81
2021/12/11 12:59:50;;;;;;;1.33;0.60;;;15.50;99.90;;;;;;5125718;27;20108;-81
2021/12/11 13:02:23;;;;;;;2.20;0.82;;;15.40;99.90;;;;;;5124657;27;20056;-79
2021/12/11 13:04:58;;;;;;;2.28;0.73;;;15.40;99.90;;;;;;5136778;27;20044;-85
2021/12/11 13:07:25;;;;;;;1.75;0.52;;;15.40;99.90;;;;;;5128167;27;20092;-81
2021/12/11 13:09:58;;;;;;;2.15;0.70;;;15.30;99.90;;;;;;5125507;27;20024;-80
2021/12/11 13:12:33;;;;;;;1.40;0.68;;;15.30;99.90;;;;;;5123312;27;20031;-81
2021/12/11 13:15:09;;;;;;;1.53;0.80;;;15.20;99.90;;;;;;5121979;27;20026;-81
2021/12/11 13:17:44;;;;;;;4.75;0.60;;;15.20;99.90;;;;;;5125312;27;20076;-83
2021/12/11 13:20:23;;;;;;;1.57;0.50;;;15.20;99.90;;;;;;5132846;27;20072;-84
2021/12/11 13:22:51;;;;;;;3.28;1.30;;;15.20;99.90;;;;;;5126219;27;20031;-86
2021/12/11 13:25:25;;;;;;;3.67;0.57;;;15.10;99.90;;;;;;5119599;27;20027;-85
2021/12/11 13:27:56;;;;;;;3.85;0.75;;;15.10;99.90;;;;;;5131519;27;20074;-83
2021/12/11 13:30:31;;;;;;;1.67;0.40;;;15.10;99.90;;;;;;5130038;27;20070;-84
2021/12/11 13:33:05;;;;;;;3.27;0.60;;;15.00;99.90;;;;;;5132478;27;20382;-77